NCAR-RAP Real-Time Weather Data

Output produced by METARs form (19 October 2018  15:00 UTC)
found at http://weather.rap.ucar.edu/surface/
 
RJOY 191000Z 15003KT 100V190 9999 FEW030 19/11 Q1017
RJOY 190900Z 23004KT 190V260 9999 FEW030 20/10 Q1016
RJOY 190800Z 26006KT 9999 FEW030 21/11 Q1016
RJOY 190700Z 27007KT 230V300 9999 FEW030 22/11 Q1016
RJOY 190600Z 28007KT 9999 FEW030 23/11 Q1015
RJOY 190500Z 26007KT 190V320 9999 FEW030 SCT090 23/11 Q1015
RJOY 190400Z 28009KT 260V320 9999 FEW030 SCT050 23/11 Q1016
RJOY 190300Z 27005KT 220V310 9999 FEW030 22/13 Q1016
RJOY 190200Z 27006KT 240V300 9999 FEW030 SCT050 BKN090 22/14 Q1017
RJOY 190100Z 27007KT 9999 FEW030 SCT045 21/14 Q1017
RJOY 190000Z VRB01KT 9999 FEW030 SCT050 19/13 Q1017
RJOY 182300Z 36003KT 330V040 9999 FEW030 18/14 Q1017
RJOY 181000Z 16003KT 100V190 9999 FEW030 BKN100 21/12 Q1015
RJOY 180900Z 23004KT 190V270 9999 FEW030 BKN100 21/10 Q1014
RJOY 180800Z 23003KT 190V290 9999 FEW030 22/10 Q1014
RJOY 180700Z 26006KT 210V290 9999 FEW030 23/09 Q1013
RJOY 180600Z 28006KT 230V320 9999 FEW030 23/10 Q1013
RJOY 180500Z 29008KT 230V360 9999 FEW030 24/10 Q1013
RJOY 180400Z VRB03KT 9999 FEW030 BKN/// 24/12 Q1013
RJOY 180300Z 28004KT 200V350 9999 FEW030 BKN/// 22/10 Q1014
RJOY 180200Z 29004KT 250V340 9999 FEW030 SCT170 BKN/// 21/12 Q1014
RJOY 180100Z VRB02KT 9999 FEW025 BKN/// 20/11 Q1015
RJOY 180000Z VRB02KT 9999 FEW025 SCT/// 19/12 Q1015
RJOY 172300Z 00000KT 9999 FEW020 BKN/// 16/12 Q1015
RJOY 171000Z 01005KT 330V060 9999 FEW030 SCT050 20/11 Q1013
RJOY 170900Z 35007KT 320V040 9999 FEW030 SCT060 BKN/// 21/11 Q1012
RJOY 170800Z 36004KT 310V030 9999 FEW030 SCT060 BKN/// 21/11 Q1012
RJOY 170700Z 35005KT 310V030 9999 FEW030 SCT045 BKN090 22/10 Q1011
RJOY 170600Z 34012KT 9999 FEW035 BKN060 BKN/// 22/10 Q1010
RJOY 170500Z 28009KT 9999 FEW035 SCT060 BKN/// 22/11 Q1010
RJOY 170400Z 31005KT 220V020 9999 FEW035 SCT050 BKN/// 23/09 Q1010